CW6020 Teulada ES current weather conditions

sailwx.info

Wind from 270 at 2 knots gusting 4

Air temperature 13.3° C
Dewpoint 1.6° C

Last reported at 2017-Feb-23 06:46 UTC.
Time now 2017-Feb-23 07:06 UTC

Location: N 38°44' E 000°06'.
View on Google Maps.

See reports from other nearby stations

  
Tides and Currents Weather Stations Pressure Air Temp Water Temp Dewpoint Dewpoint Depression Visibility Wind Speed Wind Dir Waves Ship Positions
date/time (UTC)wind fromknots sea level pressurealtimeterstation pressurevisibilityair tempwater tempwave heightnotes
2017-Feb-23 06:46 270 2 gusting 4 13.3
2017-Feb-23 06:36 13.3
2017-Feb-23 06:26 225 5 gusting 8 13.3
2017-Feb-23 06:16 13.3
2017-Feb-23 06:06 13.3
2017-Feb-23 05:56 292 5 gusting 8 13.3
2017-Feb-23 05:46 045 6 gusting 8 12.8
2017-Feb-23 05:31 12.8
2017-Feb-23 05:21 045 3 gusting 6 12.8
2017-Feb-23 05:11 315 5 gusting 10 12.8
2017-Feb-23 05:01 090 3 gusting 6 12.8
2017-Feb-23 04:51 12.8
2017-Feb-23 04:41 270 0 gusting 2 12.8
2017-Feb-23 04:31 12.8
2017-Feb-23 04:21 090 12.8
2017-Feb-23 04:11 12.8
2017-Feb-23 03:56 315 12.8
2017-Feb-23 03:46 022 0 gusting 2 12.8
2017-Feb-23 03:36 090 0 gusting 2 12.8
2017-Feb-23 03:26 315 1 gusting 2 12.8
2017-Feb-23 03:16 12.8
2017-Feb-23 03:06 225 2 gusting 4 12.8
2017-Feb-23 02:56 270 0 gusting 2 12.8
2017-Feb-23 02:46 270 0 gusting 2 12.8
2017-Feb-23 02:36 225 0 gusting 2 12.8
2017-Feb-23 02:26 135 1 gusting 2 12.8
2017-Feb-23 02:16 12.8
2017-Feb-23 02:06 12.8
2017-Feb-23 01:56 315 3 gusting 5 12.8
2017-Feb-23 01:46 315 4 gusting 6 12.8
2017-Feb-23 01:36 247 3 gusting 6 12.8
2017-Feb-23 01:26 292 2 gusting 5 12.8
2017-Feb-23 01:16 045 2 gusting 3 13.3
2017-Feb-23 01:06 315 2 gusting 5 13.3
2017-Feb-23 00:56 045 3 gusting 6 13.3
2017-Feb-23 00:46 315 3 gusting 5 13.3
2017-Feb-23 00:36 045 1 gusting 5 13.3
2017-Feb-23 00:26 13.3
2017-Feb-23 00:16 090 13.3
2017-Feb-23 00:06 270 0 gusting 2 13.3
2017-Feb-22 23:56 180 13.3
2017-Feb-22 23:46 13.3
2017-Feb-22 23:36 270 1 gusting 2 13.3
2017-Feb-22 23:26 135 0 gusting 2 13.3
2017-Feb-22 23:16 315 0 gusting 2 13.3
2017-Feb-22 23:06 315 2 gusting 3 13.3
2017-Feb-22 22:56 315 0 gusting 2 13.3
2017-Feb-22 22:46 067 1 gusting 2 13.3
2017-Feb-22 22:36 090 0 gusting 2 13.3
2017-Feb-22 22:26 135 3 gusting 4 13.3
2017-Feb-22 22:16 045 0 gusting 1 13.3
2017-Feb-22 22:06 225 0 gusting 2 13.3
2017-Feb-22 21:56 13.3
2017-Feb-22 21:46 270 1 gusting 3 13.3
2017-Feb-22 21:36 112 0 gusting 1 13.3
2017-Feb-22 21:26 315 0 gusting 1 13.3
2017-Feb-22 21:16 315 13.3
2017-Feb-22 21:06 13.3
2017-Feb-22 20:56 180 0 gusting 2 13.3
2017-Feb-22 20:46 270 13.3
2017-Feb-22 20:36 13.9
2017-Feb-22 20:26 270 1 gusting 2 13.9
2017-Feb-22 20:16 180 13.9
2017-Feb-22 20:06 225 1 gusting 3 13.9
2017-Feb-22 19:56 315 0 gusting 2 13.9
2017-Feb-22 19:46 13.9
2017-Feb-22 19:36 045 0 gusting 1 13.9
2017-Feb-22 19:26 13.9
2017-Feb-22 19:16 270 1 gusting 2 13.9
2017-Feb-22 19:06 315 2 gusting 4 13.9
2017-Feb-22 18:56 090 0 gusting 2 13.9
2017-Feb-22 18:46 13.9
2017-Feb-22 18:36 315 14.4
2017-Feb-22 18:26 090 14.4
2017-Feb-22 18:16 315 14.4
2017-Feb-22 18:06 045 14.4
2017-Feb-22 17:56 045 0 gusting 2 14.4
2017-Feb-22 17:46 270 0 gusting 2 15.0
2017-Feb-22 17:36 315 0 gusting 1 15.0
2017-Feb-22 17:26 225 1 gusting 2 15.0
2017-Feb-22 17:16 315 0 gusting 2 15.6
2017-Feb-22 17:06 315 0 gusting 2 15.6
2017-Feb-22 16:56 16.1
2017-Feb-22 16:46 270 0 gusting 1 16.1
2017-Feb-22 16:36 225 0 gusting 2 16.7
2017-Feb-22 16:26 315 1 gusting 2 16.7
2017-Feb-22 16:16 17.2
2017-Feb-22 16:06 315 0 gusting 2 17.8
2017-Feb-22 15:56 315 17.8
2017-Feb-22 15:46 315 0 gusting 1 17.8
2017-Feb-22 15:36 337 2 gusting 5 17.8
2017-Feb-22 15:26 315 18.3
2017-Feb-22 15:16 315 2 gusting 4 18.3
2017-Feb-22 15:06 045 2 gusting 5 18.3
2017-Feb-22 14:56 270 0 gusting 1 18.9
2017-Feb-22 14:46 270 1 gusting 2 18.9
2017-Feb-22 14:36 225 2 gusting 4 19.4
2017-Feb-22 14:26 315 19.4
2017-Feb-22 14:16 315 2 gusting 6 19.4
2017-Feb-22 14:06 225 2 gusting 4 20.0
2017-Feb-22 13:56 315 1 gusting 2 20.0
2017-Feb-22 13:46 045 0 gusting 1 20.0
2017-Feb-22 13:36 20.0
2017-Feb-22 13:26 20.0
2017-Feb-22 13:16 090 0 gusting 2 20.0
2017-Feb-22 13:06 225 2 gusting 3 20.0
2017-Feb-22 12:56 067 1 gusting 2 20.0
2017-Feb-22 12:46 045 0 gusting 1 20.0
2017-Feb-22 12:36 20.0
2017-Feb-22 12:26 045 0 gusting 2 19.4
2017-Feb-22 12:16 315 1 gusting 3 19.4
2017-Feb-22 12:06 135 0 gusting 1 18.9
2017-Feb-22 11:56 315 0 gusting 1 18.9
2017-Feb-22 11:46 292 0 gusting 2 18.9
2017-Feb-22 11:36 180 0 gusting 2 18.3
2017-Feb-22 11:26 045 1 gusting 2 18.3
2017-Feb-22 11:16 045 0 gusting 2 17.8
2017-Feb-22 11:06 135 0 gusting 2 17.8
2017-Feb-22 10:56 090 2 gusting 4 17.8
2017-Feb-22 10:46 045 0 gusting 1 17.2
2017-Feb-22 10:36 17.2
2017-Feb-22 10:26 045 16.7
2017-Feb-22 10:16 135 2 gusting 3 16.7
2017-Feb-22 10:06 180 2 gusting 5 16.1
2017-Feb-22 09:56 16.1
2017-Feb-22 09:46 045 1 gusting 2 15.6
2017-Feb-22 09:36 135 15.6
2017-Feb-22 09:26 15.0
2017-Feb-22 09:16 14.4
2017-Feb-22 09:06 180 0 gusting 2 13.9
2017-Feb-22 08:56 13.9
2017-Feb-22 08:46 045 13.3
2017-Feb-22 08:36 045 12.8
2017-Feb-22 08:26 12.2
2017-Feb-22 08:16 090 0 gusting 2 11.7
2017-Feb-22 08:02 11.7
2017-Feb-22 07:51 270 11.7
2017-Feb-22 07:40 11.7
2017-Feb-22 07:31 11.7
2017-Feb-22 07:20 11.7
2017-Feb-22 07:11 11.1
2017-Feb-22 07:00 11.1
2017-Feb-22 06:51 315 1 gusting 2 11.1
2017-Feb-22 06:40 315 1 gusting 2 10.6
2017-Feb-22 06:31 225 0 gusting 1 10.6
2017-Feb-22 06:20 045 10.6
2017-Feb-22 06:11 090 0 gusting 2 10.6
2017-Feb-22 06:00 225 10.6
2017-Feb-22 05:51 180 0 gusting 1 10.6
2017-Feb-22 05:40 180 10.6
2017-Feb-22 05:31 315 10.6
2017-Feb-22 05:20 045 10.6
2017-Feb-22 05:11 090 10.6
2017-Feb-22 05:00 090 0 gusting 1 10.6
2017-Feb-22 04:51 135 10.6
2017-Feb-22 04:40 180 1 gusting 2 10.6
2017-Feb-22 04:31 045 10.6
2017-Feb-22 04:20 10.6
2017-Feb-22 04:11 10.6
2017-Feb-22 04:00 180 11.1
2017-Feb-22 03:51 315 0 gusting 2 11.1
2017-Feb-22 03:40 10.6
2017-Feb-22 03:31 225 0 gusting 2 10.6
2017-Feb-22 03:20 045 0 gusting 2 10.6
2017-Feb-22 03:11 180 0 gusting 1 10.6
2017-Feb-22 03:00 135 0 gusting 2 10.6
2017-Feb-22 02:51 315 0 gusting 1 10.6
2017-Feb-22 02:40 270 10.6
2017-Feb-22 02:31 270 0 gusting 2 10.6
2017-Feb-22 02:20 225 0 gusting 2 10.6
2017-Feb-22 02:11 180 10.0
2017-Feb-22 02:00 135 1 gusting 2 10.0
2017-Feb-22 01:51 135 0 gusting 2 10.0
2017-Feb-22 01:40 315 1 gusting 3 10.0
2017-Feb-22 01:31 270 0 gusting 2 10.0
2017-Feb-22 01:20 090 9.4
2017-Feb-22 01:11 090 10.0
2017-Feb-22 01:00 9.4
2017-Feb-22 00:51 315 9.4
2017-Feb-22 00:40 9.4
2017-Feb-22 00:31 9.4
2017-Feb-22 00:20 045 0 gusting 1 9.4
2017-Feb-22 00:11 090 0 gusting 1 9.4
2017-Feb-22 00:01 9.4
2017-Feb-21 23:51 135 8.9
2017-Feb-21 23:40 045 8.9
2017-Feb-21 23:31 9.4
2017-Feb-21 23:20 090 9.4
2017-Feb-21 23:11 045 9.4
2017-Feb-21 23:00 270 9.4
2017-Feb-21 22:51 135 9.4
2017-Feb-21 22:40 10.0
2017-Feb-21 22:31 10.0
2017-Feb-21 22:20 045 10.0
2017-Feb-21 22:11 10.0
2017-Feb-21 22:01 10.0
2017-Feb-21 21:51 10.0
2017-Feb-21 21:40 10.0
2017-Feb-21 21:31 10.0
2017-Feb-21 21:20 225 10.0
2017-Feb-21 21:11 10.6
2017-Feb-21 21:00 10.6
2017-Feb-21 20:51 10.6
2017-Feb-21 20:40 135 10.6
2017-Feb-21 20:31 10.6
2017-Feb-21 20:20 045 10.6
2017-Feb-21 20:11 045 11.1
2017-Feb-21 20:00 11.1
2017-Feb-21 19:51 090 0 gusting 1 11.1
2017-Feb-21 19:40 11.7
2017-Feb-21 19:31 11.7
2017-Feb-21 19:20 180 12.2
2017-Feb-21 19:11 12.2
2017-Feb-21 19:00 12.8
2017-Feb-21 18:51 12.8
2017-Feb-21 18:40 13.3
2017-Feb-21 18:31 13.3
2017-Feb-21 18:20 315 13.9
2017-Feb-21 18:11 13.9
2017-Feb-21 17:51 022 0 gusting 2 15.0
2017-Feb-21 17:40 15.0
2017-Feb-21 17:31 15.6
2017-Feb-21 17:20 180 16.1
2017-Feb-21 17:11 045 16.1
2017-Feb-21 17:00 135 16.7
2017-Feb-21 16:51 225 17.2
2017-Feb-21 16:40 315 17.8
2017-Feb-21 16:31 18.3
2017-Feb-21 16:20 045 0 gusting 2 18.3
2017-Feb-21 16:00 315 19.4
2017-Feb-21 15:51 315 0 gusting 2 19.4
2017-Feb-21 15:40 045 20.0
2017-Feb-21 15:31 180 1 gusting 3 20.0
2017-Feb-21 15:20 180 0 gusting 2 20.0
2017-Feb-21 15:11 270 0 gusting 2 20.0
2017-Feb-21 15:00 135 1 gusting 3 20.0
2017-Feb-21 14:51 135 1 gusting 2 20.0
2017-Feb-21 14:40 045 20.0
2017-Feb-21 14:31 135 20.0
2017-Feb-21 14:20 090 20.0
2017-Feb-21 14:11 180 0 gusting 2 20.0
2017-Feb-21 14:00 180 2 gusting 6 20.0
2017-Feb-21 13:51 225 0 gusting 1 20.0
2017-Feb-21 13:40 315 19.4
2017-Feb-21 13:27 180 19.4
2017-Feb-21 13:20 315 0 gusting 1 19.4
2017-Feb-21 13:11 19.4
2017-Feb-21 13:00 315 19.4
2017-Feb-21 12:51 180 0 gusting 2 18.9
2017-Feb-21 12:40 045 0 gusting 2 18.9
2017-Feb-21 12:31 337 0 gusting 2 18.9
2017-Feb-21 12:20 18.9
2017-Feb-21 12:11 270 0 gusting 2 18.3
2017-Feb-21 12:00 045 18.3
2017-Feb-21 11:51 045 17.8
2017-Feb-21 11:40 045 0 gusting 2 17.8
2017-Feb-21 11:31 045 2 gusting 4 17.8
2017-Feb-21 11:20 225 17.2
2017-Feb-21 11:11 17.2
2017-Feb-21 11:00 315 0 gusting 1 16.7
2017-Feb-21 10:51 045 2 gusting 4 16.7
2017-Feb-21 10:40 090 0 gusting 1 16.1
2017-Feb-21 10:31 315 2 gusting 5 16.1
2017-Feb-21 10:20 15.6
2017-Feb-21 10:11 315 1 gusting 3 15.0
2017-Feb-21 10:00 315 0 gusting 1 15.0
2017-Feb-21 09:51 315 0 gusting 2 14.4
2017-Feb-21 09:40 315 3 gusting 6 13.9
2017-Feb-21 09:31 315 1 gusting 4 13.9
2017-Feb-21 09:20 090 2 gusting 5 13.3
2017-Feb-21 09:11 315 4 gusting 6 12.8
2017-Feb-21 09:00 045 1 gusting 2 12.2
2017-Feb-21 08:51 045 2 gusting 4 12.2
2017-Feb-21 08:40 315 1 gusting 2 11.7
2017-Feb-21 08:31 045 2 gusting 4 11.1
2017-Feb-21 08:20 045 1 gusting 3 10.6
2017-Feb-21 08:11 10.6
2017-Feb-21 07:57 10.0
2017-Feb-21 07:46 270 2 gusting 4 9.4
2017-Feb-21 07:36 045 2 gusting 3 9.4
2017-Feb-21 07:26 9.4
2017-Feb-21 07:16 9.4
2017-Feb-21 07:06 9.4